Time;durP1;ratioP1;P1;durP2;ratioP2;P2;SDS_P1;SDS_P2;PMS_P1;PMS_P2;Temp;Humidity;BMP_temperature;BMP_pressure;BME280_temperature;BME280_humidity;BME280_pressure;Samples;Min_cycle;Max_cycle;Signal;HPM_P1;HPM_P2
2023/07/04 00:01:01;;;;;;;10.70;5.00;;;;;;;13.92;100.00;100829.25;5058661;28;20212;-77
2023/07/04 00:03:28;;;;;;;15.27;5.17;;;;;;;13.91;100.00;100824.91;5056002;28;20287;-77
2023/07/04 00:05:55;;;;;;;12.37;4.50;;;;;;;13.86;100.00;100821.47;5059366;28;20181;-77
2023/07/04 00:08:22;;;;;;;8.53;4.50;;;;;;;13.82;100.00;100812.03;5057097;28;20246;-77
2023/07/04 00:10:50;;;;;;;10.43;4.60;;;;;;;13.78;100.00;100818.00;5049914;28;21107;-77
2023/07/04 00:13:17;;;;;;;10.40;4.97;;;;;;;13.78;100.00;100818.00;5041884;28;20186;-77
2023/07/04 00:15:51;;;;;;;7.53;4.13;;;;;;;13.74;100.00;100807.66;5054941;28;20250;-77
2023/07/04 00:18:21;;;;;;;9.17;4.40;;;;;;;13.69;100.00;100801.63;5053738;28;20209;-77
2023/07/04 00:20:55;;;;;;;9.63;4.30;;;;;;;13.68;100.00;100787.06;5052812;28;20197;-77
2023/07/04 00:23:52;;;;;;;11.03;4.10;;;;;;;13.65;100.00;100794.75;5051019;28;20276;-77
2023/07/04 00:26:19;;;;;;;6.23;4.00;;;;;;;13.63;100.00;100806.75;5047484;28;20293;-77
2023/07/04 00:28:46;;;;;;;11.67;4.03;;;;;;;13.65;100.00;100817.91;5071930;28;20718;-78
2023/07/04 00:31:15;;;;;;;10.70;4.10;;;;;;;13.62;100.00;100810.19;5059785;28;20193;-77
2023/07/04 00:33:41;;;;;;;9.43;3.97;;;;;;;13.59;100.00;100823.91;5060988;28;20227;-77
2023/07/04 00:36:10;;;;;;;7.33;3.67;;;;;;;13.57;100.00;100809.25;5059260;28;20205;-77
2023/07/04 00:38:38;;;;;;;7.27;3.63;;;;;;;13.59;100.00;100815.31;5062582;28;20237;-78
2023/07/04 00:41:09;;;;;;;6.97;3.87;;;;;;;13.61;100.00;100817.03;5070506;28;20189;-77
2023/07/04 00:43:59;;;;;;;6.07;3.40;;;;;;;13.58;100.00;100816.16;5062582;28;20268;-77
2023/07/04 00:46:52;;;;;;;5.73;3.50;;;;;;;13.58;100.00;100823.88;5040873;28;20197;-77
2023/07/04 00:49:23;;;;;;;5.57;2.40;;;;;;;13.58;100.00;100841.88;5039419;28;20655;-77
2023/07/04 00:52:11;;;;;;;4.03;2.77;;;;;;;13.58;100.00;100836.75;5063223;28;20208;-77
2023/07/04 00:54:50;;;;;;;5.90;2.40;;;;;;;13.57;100.00;100847.84;5060378;28;20220;-77
2023/07/04 00:57:17;;;;;;;5.87;2.70;;;;;;;13.60;100.00;100845.31;5052264;28;20249;-77
2023/07/04 00:59:45;;;;;;;5.23;2.47;;;;;;;13.58;100.00;100844.47;5055515;28;20200;-78
2023/07/04 01:02:15;;;;;;;3.87;2.20;;;;;;;13.54;100.00;100837.56;5058908;28;20194;-78
2023/07/04 01:04:43;;;;;;;3.40;1.97;;;;;;;13.48;100.00;100837.53;5057222;28;20682;-77
2023/07/04 01:07:15;;;;;;;3.97;2.23;;;;;;;13.43;100.00;100831.47;5052535;28;20220;-77
2023/07/04 01:09:45;;;;;;;4.77;2.13;;;;;;;13.35;100.00;100833.13;5046493;28;20216;-77
2023/07/04 01:12:13;;;;;;;3.97;1.80;;;;;;;13.32;100.00;100838.25;5040269;28;20234;-77
2023/07/04 01:14:39;;;;;;;3.30;1.67;;;;;;;13.27;100.00;100866.50;5071237;28;20217;-77
2023/07/04 01:17:06;;;;;;;3.73;1.70;;;;;;;13.22;100.00;100844.16;5060727;28;20314;-77
2023/07/04 01:19:35;;;;;;;3.07;1.43;;;;;;;13.19;100.00;100838.97;5059128;28;20189;-77
2023/07/04 01:22:12;;;;;;;3.30;1.50;;;;;;;13.16;100.00;100839.81;5060895;28;20197;-77
2023/07/04 01:25:09;;;;;;;2.90;1.43;;;;;;;13.13;100.00;100851.78;5059130;28;20565;-77
2023/07/04 01:27:36;;;;;;;3.27;1.50;;;;;;;13.11;100.00;100853.50;5055163;28;20241;-77
2023/07/04 01:30:05;;;;;;;3.27;1.50;;;;;;;13.02;100.00;100841.41;5070358;28;20250;-77
2023/07/04 01:32:32;;;;;;;3.40;1.00;;;;;;;12.98;100.00;100844.78;5061317;28;20194;-77
2023/07/04 01:35:00;;;;;;;2.73;1.30;;;;;;;12.96;100.00;100833.63;5061192;28;20205;-78
2023/07/04 01:37:29;;;;;;;2.23;1.60;;;;;;;12.94;100.00;100846.44;5067392;28;20287;-78
2023/07/04 01:39:57;;;;;;;1.40;0.97;;;;;;;12.87;100.00;100846.38;5049520;28;20247;-77
2023/07/04 01:42:23;;;;;;;3.77;1.43;;;;;;;12.83;100.00;100842.91;5061642;28;20221;-77
2023/07/04 01:44:49;;;;;;;4.27;1.50;;;;;;;12.81;100.00;100849.72;5071677;28;20185;-77
2023/07/04 01:47:15;;;;;;;3.87;1.53;;;;;;;12.77;100.00;100853.13;5061779;28;20219;-76
2023/07/04 01:49:40;;;;;;;2.53;1.40;;;;;;;12.77;100.00;100847.97;5061951;28;20219;-77
2023/07/04 01:52:06;;;;;;;4.00;1.50;;;;;;;12.78;100.00;100852.28;5057853;28;20193;-77
2023/07/04 01:54:32;;;;;;;2.97;1.40;;;;;;;12.78;100.00;100851.41;5061827;28;20264;-77
2023/07/04 01:56:57;;;;;;;4.80;1.53;;;;;;;12.74;100.00;100862.50;5058264;28;20189;-77
2023/07/04 01:59:23;;;;;;;2.83;1.40;;;;;;;12.74;100.00;100860.81;5059499;28;20186;-77
2023/07/04 02:01:49;;;;;;;5.20;1.37;;;;;;;12.76;100.00;100866.81;5059918;28;20194;-77
2023/07/04 02:04:15;;;;;;;3.47;1.43;;;;;;;12.69;100.00;100859.91;5040792;28;20194;-76
2023/07/04 02:06:40;;;;;;;3.83;1.30;;;;;;;12.70;100.00;100859.03;5054248;28;20196;-77
2023/07/04 02:09:06;;;;;;;3.87;1.23;;;;;;;12.72;100.00;100856.50;5068508;28;20695;-77
2023/07/04 02:11:31;;;;;;;2.83;1.27;;;;;;;12.72;100.00;100859.06;5056228;28;20201;-78
2023/07/04 02:13:59;;;;;;;3.57;1.47;;;;;;;12.68;100.00;100855.59;5062451;28;20201;-77
2023/07/04 02:16:24;;;;;;;2.80;1.43;;;;;;;12.65;100.00;100864.97;5058746;28;20201;-77
2023/07/04 02:18:50;;;;;;;5.10;1.50;;;;;;;12.62;100.00;100859.78;5060917;28;20216;-76
2023/07/04 02:21:15;;;;;;;5.37;1.40;;;;;;;12.58;100.00;100858.06;5056438;28;20194;-77
2023/07/04 02:23:41;;;;;;;6.20;1.80;;;;;;;12.51;100.00;100863.94;5060521;28;20242;-77
2023/07/04 02:26:07;;;;;;;4.33;1.77;;;;;;;12.51;100.00;100864.81;5054028;28;20262;-76
2023/07/04 02:28:35;;;;;;;5.83;1.83;;;;;;;12.50;100.00;100875.91;5076047;28;20680;-77
2023/07/04 02:31:01;;;;;;;6.10;1.50;;;;;;;12.49;100.00;100871.63;5057496;28;20230;-77
2023/07/04 02:33:26;;;;;;;6.57;1.63;;;;;;;12.49;100.00;100866.50;5054704;28;20255;-77
2023/07/04 02:35:52;;;;;;;5.70;1.40;;;;;;;12.49;100.00;100879.34;5060462;28;20276;-77
2023/07/04 02:38:20;;;;;;;4.40;1.77;;;;;;;12.47;100.00;100873.34;5043664;28;20629;-77
2023/07/04 02:40:47;;;;;;;6.37;1.90;;;;;;;12.44;100.00;100870.72;5059216;28;20221;-77
2023/07/04 02:43:14;;;;;;;6.37;1.67;;;;;;;12.44;100.00;100880.16;5060635;28;20246;-77
2023/07/04 02:45:40;;;;;;;4.50;1.80;;;;;;;12.43;100.00;100874.13;5053232;28;20647;-77
2023/07/04 02:48:09;;;;;;;3.57;1.80;;;;;;;12.43;100.00;100879.28;5054792;28;20232;-77
2023/07/04 02:50:35;;;;;;;5.43;1.90;;;;;;;12.45;100.00;100881.88;5057240;28;20280;-77
2023/07/04 02:53:01;;;;;;;6.10;2.00;;;;;;;12.44;100.00;100888.69;5059527;28;20312;-77
2023/07/04 02:55:27;;;;;;;6.50;1.83;;;;;;;12.42;100.00;100885.25;5044342;28;20274;-77
2023/07/04 02:57:53;;;;;;;4.60;1.80;;;;;;;12.40;100.00;100893.78;5068797;28;20728;-77
2023/07/04 03:00:18;;;;;;;5.70;1.97;;;;;;;12.39;100.00;100885.22;5048258;28;20293;-77
2023/07/04 03:02:46;;;;;;;4.27;1.70;;;;;;;12.38;100.00;100890.31;5066039;28;20188;-77
2023/07/04 03:05:12;;;;;;;6.53;2.43;;;;;;;12.35;100.00;100893.72;5075514;28;20242;-77
2023/07/04 03:07:38;;;;;;;5.00;2.13;;;;;;;12.36;100.00;100900.56;5062345;28;20204;-77
2023/07/04 03:10:06;;;;;;;5.70;1.97;;;;;;;12.32;100.00;100900.53;5055751;28;20201;-77
2023/07/04 03:12:31;;;;;;;3.93;1.93;;;;;;;12.30;100.00;100892.78;5068737;28;21013;-77
2023/07/04 03:14:58;;;;;;;4.53;2.50;;;;;;;12.25;100.00;100893.56;5048161;28;20220;-77
2023/07/04 03:17:24;;;;;;;4.10;2.47;;;;;;;12.28;100.00;100894.50;5075319;28;20201;-76
2023/07/04 03:19:50;;;;;;;7.07;2.63;;;;;;;12.28;100.00;100896.19;5062583;28;20598;-77
2023/07/04 03:22:18;;;;;;;7.33;2.60;;;;;;;12.25;100.00;100904.72;5053344;28;20201;-77
2023/07/04 03:24:44;;;;;;;6.00;2.27;;;;;;;12.29;100.00;100908.16;5049039;28;20181;-77
2023/07/04 03:27:10;;;;;;;9.30;3.47;;;;;;;12.31;100.00;100909.06;5055788;28;20196;-77
2023/07/04 03:29:35;;;;;;;7.17;2.83;;;;;;;12.31;100.00;100907.34;5056294;28;20272;-77
2023/07/04 03:32:01;;;;;;;7.60;2.93;;;;;;;12.36;100.00;100910.00;5057130;28;20640;-77
2023/07/04 03:34:26;;;;;;;7.03;3.27;;;;;;;12.36;100.00;100903.13;5060777;28;20217;-77
2023/07/04 03:36:52;;;;;;;7.83;3.30;;;;;;;12.35;100.00;100906.56;5057283;28;20189;-77
2023/07/04 03:39:17;;;;;;;7.77;4.10;;;;;;;12.38;100.00;100908.28;5057066;28;20284;-77
2023/07/04 03:41:43;;;;;;;8.50;3.47;;;;;;;12.37;100.00;100906.56;5057499;28;20193;-76
2023/07/04 03:44:08;;;;;;;8.70;3.93;;;;;;;12.39;100.00;100910.88;5060553;28;20185;-77
2023/07/04 03:46:34;;;;;;;7.20;3.77;;;;;;;12.41;100.00;100908.34;5073710;28;20380;-76
2023/07/04 03:49:00;;;;;;;7.50;3.47;;;;;;;12.46;100.00;100915.28;5059176;28;20768;-77
2023/07/04 03:51:26;;;;;;;8.50;4.07;;;;;;;12.50;100.00;100922.16;5057636;28;20190;-77
2023/07/04 03:53:51;;;;;;;7.73;4.03;;;;;;;12.54;100.00;100918.78;5064559;28;20320;-76
2023/07/04 03:56:18;;;;;;;8.67;3.53;;;;;;;12.54;100.00;100916.22;5053101;28;20248;-77
2023/07/04 03:58:43;;;;;;;9.10;3.67;;;;;;;12.57;100.00;100907.69;5053313;28;20626;-77
2023/07/04 04:01:09;;;;;;;12.33;4.30;;;;;;;12.62;100.00;100919.75;5056923;28;20246;-77
2023/07/04 04:03:37;;;;;;;8.60;3.83;;;;;;;12.64;100.00;100920.66;5057832;28;20277;-76
2023/07/04 04:06:12;;;;;;;10.13;3.83;;;;;;;12.64;100.00;100922.34;5059272;28;20208;-76
2023/07/04 04:08:37;;;;;;;14.07;4.23;;;;;;;12.70;100.00;100930.13;5056510;28;20224;-76
2023/07/04 04:11:03;;;;;;;7.93;3.67;;;;;;;12.76;100.00;100930.22;5062153;28;20204;-76
2023/07/04 04:13:29;;;;;;;7.00;4.20;;;;;;;12.77;100.00;100926.78;5055325;28;20199;-76
2023/07/04 04:15:55;;;;;;;6.67;3.60;;;;;;;12.83;100.00;100932.00;5052647;28;20651;-77
2023/07/04 04:18:20;;;;;;;6.87;3.73;;;;;;;12.86;100.00;100920.03;5060510;28;20213;-76
2023/07/04 04:20:46;;;;;;;11.43;4.43;;;;;;;12.91;100.00;100923.50;5063560;28;20189;-76
2023/07/04 04:23:12;;;;;;;9.73;4.10;;;;;;;12.94;100.00;100920.97;5055476;28;20194;-76
2023/07/04 04:25:38;;;;;;;11.13;3.83;;;;;;;12.99;100.00;100922.78;5053981;28;21026;-76
2023/07/04 04:28:05;;;;;;;10.33;4.03;;;;;;;13.01;100.00;100932.22;5057415;28;20246;-77
2023/07/04 04:30:30;;;;;;;7.03;4.27;;;;;;;13.02;100.00;100941.66;5070986;28;20190;-77
2023/07/04 04:32:56;;;;;;;9.40;4.60;;;;;;;13.06;100.00;100942.56;5063787;28;20573;-77
2023/07/04 04:35:21;;;;;;;11.40;3.93;;;;;;;13.08;100.00;100940.88;5056525;28;20249;-77
2023/07/04 04:37:47;;;;;;;9.80;4.30;;;;;;;13.12;100.00;100934.94;5065213;28;20208;-77
2023/07/04 04:40:12;;;;;;;7.13;4.07;;;;;;;13.17;100.00;100936.69;5063555;28;20666;-77
2023/07/04 04:42:39;;;;;;;9.80;4.47;;;;;;;13.22;100.00;100931.59;5058191;28;20189;-77
2023/07/04 04:45:07;;;;;;;10.63;4.50;;;;;;;13.29;100.00;100936.81;5060242;28;20250;-76
2023/07/04 04:47:33;;;;;;;10.03;4.73;;;;;;;13.40;100.00;100930.03;5062243;28;20324;-76
2023/07/04 04:50:00;;;;;;;9.97;4.33;;;;;;;13.45;100.00;100936.09;5078587;28;20276;-76
2023/07/04 04:52:31;;;;;;;9.03;4.30;;;;;;;13.47;100.00;100937.00;5061070;28;21098;-76
2023/07/04 04:54:57;;;;;;;8.50;3.63;;;;;;;13.53;100.00;100938.75;5079121;28;20227;-75
2023/07/04 04:57:23;;;;;;;12.30;4.80;;;;;;;13.60;100.00;100937.94;5055182;28;20304;-75
2023/07/04 04:59:50;;;;;;;10.93;4.70;;;;;;;13.65;100.00;100936.28;5057292;28;20203;-76
2023/07/04 05:02:16;;;;;;;11.47;4.10;;;;;;;13.71;100.00;100938.94;5050528;28;20249;-76
2023/07/04 05:04:41;;;;;;;13.83;4.60;;;;;;;13.77;100.00;100949.25;5059630;28;20197;-76
2023/07/04 05:07:07;;;;;;;14.00;5.37;;;;;;;13.78;100.00;100944.13;5054293;28;20231;-76
2023/07/04 05:09:34;;;;;;;7.30;4.03;;;;;;;13.83;100.00;100954.44;5059932;28;20225;-78
2023/07/04 05:12:00;;;;;;;11.97;5.23;;;;;;;13.85;100.00;100958.75;5072988;28;20546;-76
2023/07/04 05:14:26;;;;;;;11.27;4.33;;;;;;;13.94;100.00;100957.94;5056984;28;20553;-76
2023/07/04 05:16:52;;;;;;;10.37;4.87;;;;;;;14.06;100.00;100958.06;5060915;28;20188;-77
2023/07/04 05:19:17;;;;;;;9.73;4.93;;;;;;;14.14;100.00;100952.09;5066168;28;20713;-76
2023/07/04 05:21:43;;;;;;;10.63;5.00;;;;;;;14.13;100.00;100952.13;5060797;28;20311;-76
2023/07/04 05:24:08;;;;;;;9.70;4.87;;;;;;;14.30;100.00;100963.41;5059809;28;20190;-76
2023/07/04 05:26:36;;;;;;;10.03;4.63;;;;;;;14.45;100.00;100958.34;5060414;28;20651;-76
2023/07/04 05:29:04;;;;;;;9.00;4.63;;;;;;;14.50;100.00;100962.66;5068355;28;20228;-76
2023/07/04 05:31:30;;;;;;;8.83;4.13;;;;;;;14.48;100.00;100960.94;5065521;28;20198;-76
2023/07/04 05:33:56;;;;;;;9.90;4.10;;;;;;;14.47;100.00;100959.22;5068473;28;20216;-76
2023/07/04 05:36:25;;;;;;;9.37;4.03;;;;;;;14.58;100.00;100967.84;5054151;28;20210;-76
2023/07/04 05:38:53;;;;;;;8.77;3.70;;;;;;;14.70;100.00;100973.94;5064158;28;20205;-76
2023/07/04 05:41:28;;;;;;;8.40;4.13;;;;;;;14.76;100.00;100970.53;5044754;28;20563;-78
2023/07/04 05:43:55;;;;;;;8.27;3.23;;;;;;;14.76;100.00;100971.41;5052200;28;20767;-78
2023/07/04 05:46:21;;;;;;;9.50;3.83;;;;;;;14.98;100.00;100978.38;5066059;28;20201;-77
2023/07/04 05:48:46;;;;;;;9.07;3.63;;;;;;;15.07;100.00;100983.56;5068281;28;20216;-77
2023/07/04 05:51:14;;;;;;;7.27;3.13;;;;;;;15.22;100.00;100985.31;5068075;28;20196;-78
2023/07/04 05:53:41;;;;;;;11.30;3.47;;;;;;;15.17;100.00;100981.84;5060533;28;20678;-77
2023/07/04 05:56:13;;;;;;;8.40;3.17;;;;;;;15.34;100.00;100981.06;5074380;28;20301;-77
2023/07/04 05:58:40;;;;;;;8.20;3.30;;;;;;;15.30;100.00;100981.03;5060202;28;20208;-78
2023/07/04 06:01:19;;;;;;;9.73;3.60;;;;;;;15.34;100.00;100982.81;5061130;28;20198;-77
2023/07/04 06:03:45;;;;;;;7.43;2.70;;;;;;;15.42;100.00;100997.44;5055016;28;20231;-77
2023/07/04 06:06:19;;;;;;;9.03;3.03;;;;;;;15.58;100.00;100994.03;5064043;28;20239;-78
2023/07/04 06:08:45;;;;;;;10.30;2.80;;;;;;;15.64;100.00;100990.59;5053580;28;20216;-78
2023/07/04 06:11:11;;;;;;;6.20;2.70;;;;;;;15.70;100.00;100998.34;5077240;28;20258;-77
2023/07/04 06:13:36;;;;;;;6.83;2.57;;;;;;;15.99;100.00;100997.53;5046321;28;20786;-78
2023/07/04 06:16:04;;;;;;;8.90;2.77;;;;;;;15.83;100.00;100998.34;5054811;28;20695;-77
2023/07/04 06:18:30;;;;;;;8.60;2.70;;;;;;;15.84;100.00;100987.16;5071502;28;20276;-77
2023/07/04 06:21:19;;;;;;;8.17;2.90;;;;;;;16.10;100.00;100995.78;5060208;28;20185;-77
2023/07/04 06:23:44;;;;;;;5.97;2.50;;;;;;;16.34;100.00;100997.50;5062018;28;20706;-78
2023/07/04 06:26:11;;;;;;;7.23;2.10;;;;;;;16.60;100.00;100987.97;5065124;28;20195;-78
2023/07/04 06:28:38;;;;;;;7.73;2.57;;;;;;;16.68;100.00;101001.75;5075352;28;20305;-77
2023/07/04 06:31:05;;;;;;;7.13;2.70;;;;;;;16.77;100.00;100999.13;5069126;28;20622;-78
2023/07/04 06:33:32;;;;;;;6.13;2.27;;;;;;;16.40;100.00;101000.94;5041144;28;20202;-78
2023/07/04 06:35:58;;;;;;;7.53;2.60;;;;;;;16.23;100.00;101000.06;5058183;28;20624;-77
2023/07/04 06:38:23;;;;;;;8.30;2.17;;;;;;;16.29;100.00;101004.34;5065806;28;20204;-78
2023/07/04 06:40:57;;;;;;;6.40;2.47;;;;;;;16.18;100.00;101009.56;5061200;28;20630;-77
2023/07/04 06:43:24;;;;;;;6.70;2.20;;;;;;;16.72;100.00;101008.63;5074740;28;20851;-77
2023/07/04 06:45:50;;;;;;;4.57;2.03;;;;;;;16.90;100.00;101003.41;5058398;28;20186;-77
2023/07/04 06:48:15;;;;;;;6.67;2.20;;;;;;;16.46;100.00;101021.63;5064712;28;20227;-78
2023/07/04 06:50:42;;;;;;;6.77;2.37;;;;;;;16.21;100.00;101037.13;5067125;28;20197;-77
2023/07/04 06:53:08;;;;;;;5.90;2.30;;;;;;;16.41;100.00;101035.41;5066185;28;20292;-77
2023/07/04 06:55:33;;;;;;;4.43;2.23;;;;;;;16.40;100.00;101028.53;5077319;28;20296;-77
2023/07/04 06:57:59;;;;;;;5.00;2.33;;;;;;;16.85;100.00;101031.00;5064480;28;20211;-76
2023/07/04 07:00:24;;;;;;;6.53;2.33;;;;;;;16.82;100.00;101018.09;5057352;28;20201;-77
2023/07/04 07:02:52;;;;;;;6.47;2.10;;;;;;;17.09;100.00;101029.19;5056633;28;20202;-77
2023/07/04 07:05:18;;;;;;;10.77;2.53;;;;;;;17.05;100.00;101018.88;5060443;28;20201;-77
2023/07/04 07:07:46;;;;;;;4.33;2.07;;;;;;;17.63;100.00;101007.34;5084397;28;20233;-77
2023/07/04 07:10:11;;;;;;;4.73;2.37;;;;;;;18.01;100.00;101006.19;5067753;28;20723;-77
2023/07/04 07:12:37;;;;;;;5.63;2.07;;;;;;;17.82;100.00;100983.06;5065012;28;20292;-77
2023/07/04 07:15:02;;;;;;;4.97;2.03;;;;;;;17.64;100.00;101004.75;5059201;28;20222;-77
2023/07/04 07:17:28;;;;;;;4.90;2.23;;;;;;;17.13;100.00;101017.94;5055859;28;20270;-77
2023/07/04 07:19:53;;;;;;;6.17;1.70;;;;;;;17.16;100.00;101030.88;5061762;28;20266;-77
2023/07/04 07:22:19;;;;;;;8.77;2.20;;;;;;;17.23;100.00;101036.91;5059433;28;20559;-77
2023/07/04 07:24:44;;;;;;;4.13;1.87;;;;;;;17.55;100.00;101019.50;5061589;28;20200;-77
2023/07/04 07:27:10;;;;;;;4.60;1.70;;;;;;;17.78;100.00;100983.94;5048569;28;20201;-77
2023/07/04 07:29:35;;;;;;;6.03;1.80;;;;;;;17.96;100.00;100996.75;5036059;28;20205;-77
2023/07/04 07:32:07;;;;;;;3.50;1.50;;;;;;;17.96;100.00;100999.34;5063404;28;20204;-77
2023/07/04 07:34:33;;;;;;;5.53;1.83;;;;;;;17.40;100.00;101022.19;5079003;28;20694;-77
2023/07/04 07:36:58;;;;;;;6.27;1.77;;;;;;;17.79;100.00;100970.09;5066903;28;20195;-76
2023/07/04 07:39:24;;;;;;;4.70;1.80;;;;;;;18.00;100.00;100970.78;5056960;28;20659;-77
2023/07/04 07:41:49;;;;;;;5.77;2.27;;;;;;;17.62;100.00;101000.44;5051312;28;20316;-76
2023/07/04 07:44:16;;;;;;;4.27;1.63;;;;;;;18.17;100.00;101005.22;5060924;28;20292;-76
2023/07/04 07:46:43;;;;;;;2.77;1.70;;;;;;;18.97;100.00;100981.03;5065244;28;20202;-77
2023/07/04 07:49:08;;;;;;;3.43;1.63;;;;;;;18.34;100.00;100955.81;5055228;28;20213;-77
2023/07/04 07:51:35;;;;;;;3.17;1.67;;;;;;;18.30;100.00;100987.78;5074174;28;20198;-76
2023/07/04 07:54:01;;;;;;;3.93;1.63;;;;;;;18.52;100.00;100951.28;5053954;28;20287;-77
2023/07/04 07:56:32;;;;;;;3.20;1.40;;;;;;;18.49;100.00;100932.28;5069399;28;20202;-77
2023/07/04 07:58:58;;;;;;;3.50;1.57;;;;;;;18.41;100.00;100914.22;5074557;28;20215;-77
2023/07/04 08:01:29;;;;;;;5.50;1.50;;;;;;;18.40;100.00;100925.50;5043419;28;20190;-77
2023/07/04 08:03:55;;;;;;;4.03;1.50;;;;;;;18.28;100.00;100935.94;5057085;28;20575;-77
2023/07/04 08:06:30;;;;;;;3.43;1.40;;;;;;;18.05;100.00;100966.41;5054842;28;20203;-77
2023/07/04 08:08:57;;;;;;;6.23;1.80;;;;;;;18.25;100.00;100972.31;5052326;28;20221;-78
2023/07/04 08:11:24;;;;;;;4.07;1.73;;;;;;;18.33;100.00;100973.09;5046019;28;20343;-77
2023/07/04 08:13:50;;;;;;;3.67;1.57;;;;;;;18.39;100.00;100934.16;5048533;28;20221;-76
2023/07/04 08:16:19;;;;;;;4.23;1.60;;;;;;;18.63;100.00;100907.06;5039926;28;20206;-75
2023/07/04 08:18:45;;;;;;;5.17;1.40;;;;;;;18.45;100.00;100904.69;5050884;28;20307;-76
2023/07/04 08:21:10;;;;;;;4.53;1.70;;;;;;;18.32;100.00;100884.91;5038968;28;20299;-75
2023/07/04 08:23:35;;;;;;;3.27;1.47;;;;;;;18.12;100.00;100892.94;5046325;28;20289;-76
2023/07/04 08:26:01;;;;;;;4.47;1.40;;;;;;;18.64;100.00;100925.19;5048136;28;20208;-76
2023/07/04 08:28:26;;;;;;;5.37;1.60;;;;;;;18.60;100.00;100920.09;5040968;28;20244;-76
2023/07/04 08:30:52;;;;;;;7.90;1.93;;;;;;;18.65;100.00;100918.28;5037685;28;20940;-76
2023/07/04 08:33:18;;;;;;;5.80;1.80;;;;;;;18.78;100.00;100906.84;5042425;28;20198;-76
2023/07/04 08:35:56;;;;;;;3.53;1.20;;;;;;;18.34;100.00;100906.53;5042706;28;20702;-75
2023/07/04 08:38:21;;;;;;;3.70;1.50;;;;;;;18.53;100.00;100914.09;5039113;28;20217;-75
2023/07/04 08:40:47;;;;;;;8.27;1.83;;;;;;;18.44;100.00;100934.09;5046595;28;20197;-75
2023/07/04 08:43:13;;;;;;;4.77;1.90;;;;;;;18.84;100.00;100925.81;5047954;28;20228;-76
2023/07/04 08:45:39;;;;;;;3.57;1.30;;;;;;;18.96;100.00;100912.69;5042828;28;20181;-75
2023/07/04 08:48:05;;;;;;;3.73;1.40;;;;;;;19.19;100.00;100907.16;5034878;28;20346;-75
2023/07/04 08:50:37;;;;;;;4.17;1.20;;;;;;;19.04;100.00;100918.63;5042001;28;20214;-76
2023/07/04 08:53:11;;;;;;;3.67;1.67;;;;;;;18.34;100.00;100928.13;5043835;28;20194;-74
2023/07/04 08:55:50;;;;;;;3.50;1.47;;;;;;;18.29;100.00;100952.38;5045928;28;20636;-73
2023/07/04 08:58:19;;;;;;;4.07;1.60;;;;;;;18.34;100.00;100945.44;5035170;28;20225;-74
2023/07/04 09:00:45;;;;;;;2.00;1.00;;;;;;;18.43;100.00;100924.59;5035935;28;20206;-74
2023/07/04 09:03:32;;;;;;;2.87;1.23;;;;;;;18.63;100.00;100933.88;5037671;28;20245;-74
2023/07/04 09:06:22;;;;;;;4.13;1.37;;;;;;;18.73;100.00;100930.28;5048630;28;20204;-74
2023/07/04 09:09:08;;;;;;;3.67;1.27;;;;;;;18.92;100.00;100897.16;5038635;28;20214;-73
2023/07/04 09:11:33;;;;;;;2.73;1.10;;;;;;;19.12;100.00;100870.03;5037902;28;20190;-73
2023/07/04 09:14:38;;;;;;;2.97;0.90;;;;;;;18.97;100.00;100885.00;5043608;28;20210;-73
2023/07/04 09:17:16;;;;;;;5.00;1.60;;;;;;;18.88;100.00;100878.16;5039112;28;20283;-73
2023/07/04 09:19:45;;;;;;;3.23;1.00;;;;;;;18.98;100.00;100825.25;5047063;28;20565;-73
2023/07/04 09:22:11;;;;;;;3.03;1.27;;;;;;;19.42;100.00;100814.19;5039020;28;20832;-73
2023/07/04 09:24:36;;;;;;;2.47;1.30;;;;;;;19.20;100.00;100816.25;5040047;28;20189;-73
2023/07/04 09:27:02;;;;;;;3.90;1.20;;;;;;;19.80;100.00;100823.00;5036908;28;20210;-73
2023/07/04 09:29:28;;;;;;;2.30;1.03;;;;;;;19.59;100.00;100825.16;5040115;28;20203;-73
2023/07/04 09:31:58;;;;;;;5.37;1.73;;;;;;;19.55;99.88;100826.09;5032055;28;20332;-74
2023/07/04 09:35:00;;;;;;;1.83;1.10;;;;;;;19.64;100.00;100831.13;5043279;28;20205;-74
2023/07/04 09:37:25;;;;;;;3.53;1.40;;;;;;;19.47;99.01;100813.22;4986759;28;20230;-74
2023/07/04 09:39:54;;;;;;;4.20;1.33;;;;;;;19.60;99.86;100821.66;5036222;28;20210;-74
2023/07/04 09:42:31;;;;;;;2.90;1.30;;;;;;;19.46;98.39;100818.44;5040262;28;20201;-74
2023/07/04 09:45:05;;;;;;;3.53;1.27;;;;;;;19.52;100.00;100842.56;5058874;28;20222;-74
2023/07/04 09:47:32;;;;;;;2.30;1.17;;;;;;;19.36;100.00;100830.75;5038134;28;20691;-73
2023/07/04 09:50:36;;;;;;;2.87;1.30;;;;;;;19.21;100.00;100848.28;5048053;28;20284;-74
2023/07/04 09:53:10;;;;;;;3.23;1.17;;;;;;;19.35;100.00;100862.78;4981327;28;20203;-73
2023/07/04 09:55:38;;;;;;;2.50;1.20;;;;;;;19.11;100.00;100881.28;5047044;28;20351;-74
2023/07/04 09:58:23;;;;;;;3.10;1.23;;;;;;;18.87;100.00;100893.75;5048971;28;20233;-73
2023/07/04 10:01:18;;;;;;;3.67;1.47;;;;;;;18.70;100.00;100898.34;5042225;28;20251;-74
2023/07/04 10:03:45;;;;;;;4.07;1.30;;;;;;;18.31;100.00;100980.00;5041985;28;20556;-73
2023/07/04 10:06:11;;;;;;;3.37;1.40;;;;;;;18.16;100.00;101024.22;5049401;28;20198;-73
2023/07/04 10:08:54;;;;;;;6.33;1.63;;;;;;;18.45;100.00;100985.94;5040488;28;20226;-74
2023/07/04 10:11:37;;;;;;;3.70;1.27;;;;;;;18.51;100.00;100959.94;5042087;28;20193;-74
2023/07/04 10:14:06;;;;;;;2.23;1.00;;;;;;;18.59;100.00;100919.22;5035705;28;20590;-74
2023/07/04 10:16:32;;;;;;;5.07;1.30;;;;;;;18.73;100.00;100899.13;5051375;28;20198;-74
2023/07/04 10:19:07;;;;;;;3.47;1.00;;;;;;;18.65;99.97;100890.59;5048305;28;20228;-73
2023/07/04 10:21:39;;;;;;;3.17;1.10;;;;;;;18.78;100.00;100906.84;5045751;28;20247;-73
2023/07/04 10:24:07;;;;;;;2.37;1.20;;;;;;;19.27;100.00;100902.75;5049196;28;20206;-73
2023/07/04 10:26:35;;;;;;;2.20;1.20;;;;;;;20.07;100.00;100897.03;5043425;28;20599;-73
2023/07/04 10:29:02;;;;;;;3.43;1.20;;;;;;;19.68;100.00;100909.03;5038425;28;20320;-73
2023/07/04 10:31:28;;;;;;;2.97;1.20;;;;;;;19.51;100.00;100907.56;5032045;28;20236;-73
2023/07/04 10:34:01;;;;;;;4.97;1.87;;;;;;;19.13;100.00;100921.09;5044496;28;20740;-73
2023/07/04 10:36:31;;;;;;;3.87;1.30;;;;;;;18.98;100.00;100947.25;5049777;28;20248;-73
2023/07/04 10:39:06;;;;;;;3.13;1.10;;;;;;;18.91;100.00;100944.75;5047234;28;20217;-72
2023/07/04 10:41:39;;;;;;;3.13;1.43;;;;;;;19.00;100.00;100934.25;5039537;28;20546;-73
2023/07/04 10:44:11;;;;;;;3.13;1.00;;;;;;;19.06;100.00;100922.03;5040450;28;20194;-72
2023/07/04 10:46:46;;;;;;;2.80;1.10;;;;;;;19.30;100.00;100910.50;5044931;28;20200;-72
2023/07/04 10:49:19;;;;;;;5.07;1.50;;;;;;;19.85;100.00;100919.13;5039806;28;20249;-73
2023/07/04 10:51:48;;;;;;;3.37;1.33;;;;;;;19.72;100.00;100943.59;5056402;28;20197;-73
2023/07/04 10:54:13;;;;;;;5.97;1.60;;;;;;;19.35;100.00;100974.47;5044957;28;20226;-72
2023/07/04 10:56:44;;;;;;;3.03;1.23;;;;;;;19.34;100.00;100945.94;5042646;28;20200;-72
2023/07/04 10:59:27;;;;;;;3.93;1.30;;;;;;;19.37;100.00;100944.16;5041802;28;20222;-72
2023/07/04 11:02:22;;;;;;;4.60;1.33;;;;;;;19.87;100.00;100954.59;5058601;28;20191;-72
2023/07/04 11:04:49;;;;;;;2.37;1.03;;;;;;;19.88;100.00;100919.94;5036297;28;20198;-72
2023/07/04 11:07:21;;;;;;;4.57;1.20;;;;;;;20.10;100.00;100895.28;5040867;28;20723;-72
2023/07/04 11:10:02;;;;;;;2.33;1.40;;;;;;;19.93;100.00;100909.44;5044551;28;20802;-72
2023/07/04 11:12:29;;;;;;;2.30;1.27;;;;;;;20.37;91.04;100852.28;5044494;28;20208;-73
2023/07/04 11:15:27;;;;;;;3.23;1.33;;;;;;;20.57;89.71;100840.56;5050722;28;20218;-72
2023/07/04 11:17:54;;;;;;;4.17;1.20;;;;;;;20.24;76.32;100799.66;5043107;28;20222;-73
2023/07/04 11:20:47;;;;;;;3.30;1.20;;;;;;;20.71;76.70;100807.28;5045753;28;20285;-73
2023/07/04 11:23:19;;;;;;;3.00;1.17;;;;;;;20.37;72.60;100810.66;5018607;28;20235;-72
2023/07/04 11:25:44;;;;;;;1.87;1.07;;;;;;;21.22;73.35;100815.66;5023707;28;20229;-72